Huvudsida
METAR-TAF:

METAR-TAF

Flygplatser :

Turaif, Saudiarabien

latitud: 31-41N, longitud: 038-44E, höjd: 813 m

Aktuellt väderrapport

Denna rapport gjordes för 51 minuter sedan, klockan 19:00 UTC
Vind 8 kt från ost/nordost
Temperatur 15°C
Fuktighet 39%
Tryck 1019 hPa
Sikt 10 km eller mer
Inga moln under 1 500 m eller inga cumulonimbus

METAR: OETR 111900Z 06008KT CAVOK 15/01 Q1019

Tid: 22:51 (19:51 UTC)

Väderprognos

Denna rapport gjordes för 8 timmar och 51 minuter sedan, klockan 11:00 UTC
Prognos gäller från 11 kl. 12 UTC till 12 kl. 18 UTC
Vind 12 kt från ost
Sikt 10 km eller mer
Få moln på en höjd av 4000 ft

TAF: OETR 111100Z 1112/1218 09012KT 9999 FEW040

Aktuella väderrapporter och prognoser från 4000 flygplatser (METAR- och TAF-rapporter).

De tillgängliga stationerna syns som gula och röda prickar på kartan.

För musen över prickarna för att se namnen på stationerna.

Klicka sedan för att få väderrapporter och prognoser.

För att ändra kartan: Klicka på de gröna knapparna med ett svart kors på för att zooma in; den gröna knappen med ett streck på för att zooma ut; eller på de gröna pilarna för angränsande kartor.


METAR-TAF: